createdAt,value
2024-02-15T00:00:09.617Z,57.27
2024-02-15T00:02:37.029Z,57.48
2024-02-15T00:05:04.461Z,57.59
2024-02-15T00:07:33.185Z,57.67
2024-02-15T00:10:00.445Z,57.38
2024-02-15T00:12:27.720Z,57.54
2024-02-15T00:14:55.168Z,57.33
2024-02-15T00:17:22.410Z,57.61
2024-02-15T00:19:49.823Z,57.59
2024-02-15T00:22:17.044Z,57.77
2024-02-15T00:24:45.393Z,57.92
2024-02-15T00:27:12.970Z,58.19
2024-02-15T00:29:41.938Z,57.55
2024-02-15T00:32:09.377Z,58.14
2024-02-15T00:34:39.867Z,58.35
2024-02-15T00:37:07.611Z,58.26
2024-02-15T00:39:34.833Z,58.25
2024-02-15T00:42:02.303Z,58.16
2024-02-15T00:44:29.652Z,58.65
2024-02-15T00:46:57.499Z,58.72
2024-02-15T00:49:25.488Z,58.92
2024-02-15T00:51:52.925Z,59.77
2024-02-15T00:54:20.252Z,60.09
2024-02-15T00:56:47.728Z,60.37
2024-02-15T00:59:15.654Z,60.64
2024-02-15T01:01:42.982Z,60.59
2024-02-15T01:04:10.538Z,60.30
2024-02-15T01:06:38.045Z,60.15
2024-02-15T01:09:05.663Z,60.04
2024-02-15T01:11:39.163Z,59.92
2024-02-15T01:14:11.167Z,59.97
2024-02-15T01:16:38.565Z,59.92
2024-02-15T01:19:06.764Z,60.24
2024-02-15T01:21:37.795Z,60.28
2024-02-15T01:24:08.197Z,60.31
2024-02-15T01:26:36.125Z,60.41
2024-02-15T01:29:04.789Z,60.56
2024-02-15T01:31:32.218Z,60.61
2024-02-15T01:33:59.593Z,60.69
2024-02-15T01:36:27.732Z,60.54
2024-02-15T01:38:55.046Z,60.69
2024-02-15T01:41:22.383Z,60.58
2024-02-15T01:43:51.440Z,60.68
2024-02-15T01:46:19.341Z,60.48
2024-02-15T01:48:47.366Z,60.56
2024-02-15T01:51:17.520Z,60.52
2024-02-15T01:53:45.409Z,60.69
2024-02-15T01:56:15.351Z,60.59
2024-02-15T01:58:44.235Z,61.00
2024-02-15T02:01:12.854Z,60.86
2024-02-15T02:03:41.013Z,60.88
2024-02-15T02:06:09.060Z,60.58
2024-02-15T02:08:36.734Z,60.90
2024-02-15T02:11:05.335Z,61.14
2024-02-15T02:13:32.595Z,61.29
2024-02-15T02:16:12.607Z,61.54
2024-02-15T02:18:40.434Z,61.31
2024-02-15T02:21:07.827Z,61.38
2024-02-15T02:23:35.508Z,61.13
2024-02-15T02:26:02.929Z,60.83
2024-02-15T02:28:30.171Z,60.94
2024-02-15T02:30:57.863Z,60.66
2024-02-15T02:33:26.454Z,60.97
2024-02-15T02:35:53.877Z,60.79
2024-02-15T02:38:21.195Z,60.81
2024-02-15T02:40:51.307Z,60.69
2024-02-15T02:43:19.181Z,60.86
2024-02-15T02:45:49.523Z,60.96
2024-02-15T02:48:17.083Z,60.83
2024-02-15T02:50:44.399Z,60.89
2024-02-15T02:53:12.297Z,60.98
2024-02-15T02:55:39.780Z,61.09
2024-02-15T02:58:08.968Z,61.47
2024-02-15T03:00:36.567Z,61.42
2024-02-15T03:03:04.250Z,61.51
2024-02-15T03:05:31.631Z,61.55
2024-02-15T03:07:58.976Z,61.65
2024-02-15T03:10:26.246Z,61.41
2024-02-15T03:12:54.080Z,61.41
2024-02-15T03:15:21.904Z,61.30
2024-02-15T03:17:50.383Z,61.37
2024-02-15T03:20:26.949Z,61.05
2024-02-15T03:22:59.220Z,60.91
2024-02-15T03:25:27.961Z,61.42
2024-02-15T03:27:57.497Z,61.37
2024-02-15T03:30:30.831Z,61.38
2024-02-15T03:32:59.305Z,61.21
2024-02-15T03:35:30.207Z,60.77
2024-02-15T03:37:57.813Z,60.53
2024-02-15T03:40:28.063Z,60.75
2024-02-15T03:42:55.621Z,61.22
2024-02-15T03:45:26.447Z,61.75
2024-02-15T03:47:55.049Z,61.92
2024-02-15T03:50:25.265Z,62.37
2024-02-15T03:52:52.941Z,62.46
2024-02-15T03:55:21.214Z,62.33
2024-02-15T03:57:48.530Z,62.38
2024-02-15T04:00:22.800Z,62.52
2024-02-15T04:02:51.215Z,62.49
2024-02-15T04:05:20.380Z,62.53
2024-02-15T04:07:47.902Z,62.13
2024-02-15T04:10:15.692Z,62.35
2024-02-15T04:12:45.612Z,62.36
2024-02-15T04:15:14.181Z,62.59
2024-02-15T04:17:43.992Z,62.67
2024-02-15T04:20:13.638Z,62.76
2024-02-15T04:22:44.250Z,62.81
2024-02-15T04:25:12.531Z,62.27
2024-02-15T04:27:40.685Z,62.67
2024-02-15T04:30:09.700Z,63.05
2024-02-15T04:32:38.109Z,63.13
2024-02-15T04:35:09.031Z,63.38
2024-02-15T04:37:38.897Z,63.33
2024-02-15T04:40:11.959Z,63.01
2024-02-15T04:42:42.260Z,63.04
2024-02-15T04:45:12.142Z,63.10
2024-02-15T04:47:41.791Z,62.95
2024-02-15T04:50:10.700Z,62.85
2024-02-15T04:52:38.427Z,63.31
2024-02-15T04:55:07.093Z,63.45
2024-02-15T04:57:37.870Z,63.57
2024-02-15T05:00:12.420Z,63.79
2024-02-15T05:02:44.945Z,63.93
2024-02-15T05:05:14.472Z,63.50
2024-02-15T05:07:44.614Z,64.03
2024-02-15T05:10:12.431Z,64.08
2024-02-15T05:12:41.719Z,64.06
2024-02-15T05:15:13.221Z,63.74
2024-02-15T05:17:44.844Z,63.44
2024-02-15T05:20:15.016Z,63.64
2024-02-15T05:22:50.142Z,63.56
2024-02-15T05:25:26.156Z,63.56
2024-02-15T05:27:56.825Z,64.08
2024-02-15T05:30:25.096Z,64.84
2024-02-15T05:32:55.142Z,65.62
2024-02-15T05:35:26.285Z,65.69
2024-02-15T05:37:57.555Z,66.00
2024-02-15T05:40:24.976Z,65.97
2024-02-15T05:42:58.080Z,66.00
2024-02-15T05:45:26.274Z,65.63
2024-02-15T05:47:54.371Z,65.46
2024-02-15T05:50:22.815Z,64.94
2024-02-15T05:52:50.343Z,64.69
2024-02-15T05:55:18.651Z,64.61
2024-02-15T05:57:46.181Z,64.93
2024-02-15T06:00:21.925Z,65.03
2024-02-15T06:02:51.510Z,62.30
2024-02-15T06:05:19.804Z,61.42
2024-02-15T06:07:48.306Z,59.26
2024-02-15T06:10:16.982Z,57.45
2024-02-15T06:12:44.629Z,55.43
2024-02-15T06:15:17.259Z,55.39
2024-02-15T06:17:46.018Z,52.32
2024-02-15T06:20:19.750Z,52.33
2024-02-15T06:22:50.909Z,50.21
2024-02-15T06:25:23.025Z,49.16
2024-02-15T06:27:52.827Z,47.56
2024-02-15T06:30:38.769Z,45.03
2024-02-15T06:33:24.665Z,47.52
2024-02-15T06:36:10.734Z,46.96
2024-02-15T06:38:56.590Z,45.48
2024-02-15T06:41:27.117Z,44.58
2024-02-15T06:43:54.978Z,44.01
2024-02-15T06:46:23.054Z,42.09
2024-02-15T06:48:50.945Z,41.58
2024-02-15T06:51:18.690Z,40.25
2024-02-15T06:53:45.996Z,39.99
2024-02-15T06:56:15.474Z,40.59
2024-02-15T06:58:42.925Z,39.90
2024-02-15T07:01:10.505Z,40.43
2024-02-15T07:03:38.031Z,41.10
2024-02-15T07:06:05.536Z,42.24
2024-02-15T07:08:33.597Z,43.38
2024-02-15T07:11:01.056Z,44.52
2024-02-15T07:13:28.491Z,45.49
2024-02-15T07:15:55.894Z,46.51
2024-02-15T07:18:27.900Z,47.55
2024-02-15T07:21:00.001Z,47.60
2024-02-15T07:23:27.358Z,48.02
2024-02-15T07:25:55.507Z,47.52
2024-02-15T07:28:22.981Z,45.94
2024-02-15T07:30:53.707Z,45.06
2024-02-15T07:33:22.555Z,44.37
2024-02-15T07:35:53.206Z,44.64
2024-02-15T07:38:24.414Z,44.90
2024-02-15T07:40:52.064Z,45.47
2024-02-15T07:43:19.320Z,45.55
2024-02-15T07:45:49.200Z,45.58
2024-02-15T07:48:16.734Z,45.97
2024-02-15T07:50:45.443Z,46.01
2024-02-15T07:53:13.370Z,45.77
2024-02-15T07:55:40.952Z,45.28
2024-02-15T07:58:08.460Z,44.91
2024-02-15T08:00:36.592Z,44.97
2024-02-15T08:03:04.614Z,51.45
2024-02-15T08:05:33.631Z,52.67
2024-02-15T08:08:02.328Z,53.71
2024-02-15T08:10:30.494Z,52.96
2024-02-15T08:12:59.762Z,51.51
2024-02-15T08:15:29.557Z,50.62
2024-02-15T08:17:57.471Z,49.62
2024-02-15T08:20:27.253Z,48.36
2024-02-15T08:22:54.499Z,47.72
2024-02-15T08:25:21.911Z,47.16
2024-02-15T08:27:51.709Z,46.91
2024-02-15T08:30:22.762Z,45.52
2024-02-15T08:32:54.919Z,45.65
2024-02-15T08:35:22.890Z,45.84
2024-02-15T08:37:53.069Z,45.05
2024-02-15T08:40:26.326Z,45.47
2024-02-15T08:42:54.242Z,44.38
2024-02-15T08:45:22.126Z,43.95
2024-02-15T08:47:51.444Z,41.27
2024-02-15T08:50:19.233Z,41.10
2024-02-15T08:52:48.237Z,40.01
2024-02-15T08:55:16.056Z,40.19
2024-02-15T08:57:45.807Z,42.49
2024-02-15T09:00:18.413Z,43.08
2024-02-15T09:02:47.420Z,42.84
2024-02-15T09:05:16.520Z,42.07
2024-02-15T09:07:48.893Z,41.68
2024-02-15T09:10:18.550Z,44.73
2024-02-15T09:12:51.096Z,45.15
2024-02-15T09:15:19.087Z,46.60
2024-02-15T09:17:47.581Z,46.69
2024-02-15T09:20:17.213Z,45.29
2024-02-15T09:22:53.338Z,43.61
2024-02-15T09:25:21.793Z,38.44
2024-02-15T09:27:48.942Z,36.97
2024-02-15T09:30:17.715Z,38.68
2024-02-15T09:32:46.633Z,38.53
2024-02-15T09:35:15.348Z,35.90
2024-02-15T09:37:50.650Z,33.37
2024-02-15T09:40:19.577Z,34.87
2024-02-15T09:42:49.117Z,36.03
2024-02-15T09:45:18.008Z,36.09
2024-02-15T09:47:46.287Z,35.84
2024-02-15T09:50:16.219Z,36.64
2024-02-15T09:52:47.358Z,39.24
2024-02-15T09:55:17.601Z,44.74
2024-02-15T09:57:48.320Z,46.41
2024-02-15T10:00:18.394Z,46.94
2024-02-15T10:02:49.312Z,47.08
2024-02-15T10:05:18.868Z,46.63
2024-02-15T10:07:47.862Z,42.26
2024-02-15T10:10:27.056Z,37.01
2024-02-15T10:12:56.231Z,37.19
2024-02-15T10:15:41.880Z,36.82
2024-02-15T10:18:12.809Z,35.59
2024-02-15T10:20:42.678Z,35.71
2024-02-15T10:23:11.795Z,37.83
2024-02-15T10:25:40.650Z,39.61
2024-02-15T10:28:12.539Z,42.17
2024-02-15T10:30:44.841Z,38.95
2024-02-15T10:33:22.120Z,39.44
2024-02-15T10:35:49.711Z,41.34
2024-02-15T10:38:19.377Z,40.65
2024-02-15T10:40:48.303Z,44.90
2024-02-15T10:43:18.587Z,47.63
2024-02-15T10:45:46.973Z,49.02
2024-02-15T10:48:17.229Z,50.07
2024-02-15T10:50:48.173Z,50.31
2024-02-15T10:53:33.929Z,50.80
2024-02-15T10:56:07.719Z,49.89
2024-02-15T10:58:44.711Z,46.78
2024-02-15T11:01:14.768Z,46.77
2024-02-15T11:03:52.970Z,48.91
2024-02-15T11:06:23.226Z,50.13
2024-02-15T11:08:51.515Z,48.87
2024-02-15T11:11:19.826Z,48.37
2024-02-15T11:13:50.497Z,50.29
2024-02-15T11:16:47.031Z,49.69
2024-02-15T11:19:40.710Z,48.52
2024-02-15T11:22:13.369Z,47.98
2024-02-15T11:24:52.498Z,45.54
2024-02-15T11:27:30.520Z,47.08
2024-02-15T11:30:11.477Z,46.72
2024-02-15T11:32:55.324Z,44.46
2024-02-15T11:35:27.548Z,41.94
2024-02-15T11:38:05.695Z,42.58
2024-02-15T11:40:45.597Z,42.19
2024-02-15T11:43:51.257Z,41.85
2024-02-15T11:46:20.612Z,39.40
2024-02-15T11:48:49.087Z,38.16
2024-02-15T11:51:44.252Z,40.83
2024-02-15T11:54:13.409Z,41.08
2024-02-15T11:56:50.513Z,41.23
2024-02-15T11:59:30.801Z,42.55
2024-02-15T12:02:17.053Z,43.15
2024-02-15T12:05:03.806Z,41.80
2024-02-15T12:07:50.959Z,42.09
2024-02-15T12:10:37.765Z,43.86
2024-02-15T12:13:23.944Z,44.54
2024-02-15T12:16:20.279Z,46.25
2024-02-15T12:18:54.056Z,48.82
2024-02-15T12:21:29.289Z,48.54
2024-02-15T12:23:57.617Z,50.82
2024-02-15T12:26:25.343Z,50.91
2024-02-15T12:28:57.615Z,50.30
2024-02-15T12:31:28.075Z,50.16
2024-02-15T12:34:03.158Z,49.80
2024-02-15T12:36:33.713Z,50.58
2024-02-15T12:39:12.403Z,47.94
2024-02-15T12:41:44.286Z,44.81
2024-02-15T12:44:14.375Z,46.45
2024-02-15T12:46:42.146Z,48.34
2024-02-15T12:49:20.859Z,48.22
2024-02-15T12:51:56.503Z,50.54
2024-02-15T12:54:25.501Z,50.02
2024-02-15T12:57:11.536Z,53.05
2024-02-15T12:59:39.751Z,55.01
2024-02-15T13:02:07.546Z,56.14
2024-02-15T13:04:34.870Z,55.67
2024-02-15T13:07:02.860Z,56.72
2024-02-15T13:09:31.160Z,56.87
2024-02-15T13:11:59.863Z,56.52
2024-02-15T13:14:30.744Z,57.68
2024-02-15T13:16:59.104Z,56.92
2024-02-15T13:19:26.408Z,57.33
2024-02-15T13:21:54.472Z,57.37
2024-02-15T13:24:27.585Z,59.18
2024-02-15T13:27:01.241Z,59.14
2024-02-15T13:29:28.873Z,59.75
2024-02-15T13:31:56.180Z,60.58
2024-02-15T13:34:23.596Z,59.48
2024-02-15T13:36:51.324Z,60.02
2024-02-15T13:39:22.162Z,60.21
2024-02-15T13:41:49.542Z,59.88
2024-02-15T13:44:17.844Z,61.20
2024-02-15T13:46:45.560Z,61.73
2024-02-15T13:49:23.033Z,63.15
2024-02-15T13:51:57.078Z,63.62
2024-02-15T13:54:24.411Z,63.39
2024-02-15T13:56:51.804Z,64.43
2024-02-15T13:59:20.235Z,64.42
2024-02-15T14:01:47.389Z,64.37
2024-02-15T14:04:14.698Z,65.19
2024-02-15T14:06:42.129Z,66.11
2024-02-15T14:09:12.570Z,65.78
2024-02-15T14:11:40.859Z,66.48
2024-02-15T14:14:08.137Z,68.60
2024-02-15T14:16:35.700Z,67.25
2024-02-15T14:19:05.311Z,69.57
2024-02-15T14:21:34.904Z,69.94
2024-02-15T14:24:02.349Z,71.09
2024-02-15T14:26:32.889Z,72.52
2024-02-15T14:29:03.077Z,74.34
2024-02-15T14:31:48.992Z,73.47
2024-02-15T14:34:17.322Z,75.78
2024-02-15T14:36:44.804Z,75.71
2024-02-15T14:39:12.171Z,73.85
2024-02-15T14:41:49.156Z,74.47
2024-02-15T14:44:17.440Z,74.75
2024-02-15T14:46:44.940Z,73.32
2024-02-15T14:49:12.465Z,73.10
2024-02-15T14:51:40.817Z,72.64
2024-02-15T14:54:08.239Z,72.05
2024-02-15T14:59:06.375Z,73.57
2024-02-15T15:01:33.992Z,73.74
2024-02-15T15:04:04.754Z,74.75
2024-02-15T15:06:50.816Z,75.98
2024-02-15T15:09:36.542Z,76.84
2024-02-15T15:12:22.689Z,77.15
2024-02-15T15:14:50.124Z,77.87
2024-02-15T15:17:18.606Z,78.38
2024-02-15T15:19:45.948Z,78.47
2024-02-15T15:22:13.231Z,78.95
2024-02-15T15:24:40.490Z,78.96
2024-02-15T15:27:09.269Z,78.64
2024-02-15T15:29:36.562Z,77.51
2024-02-15T15:32:04.196Z,76.16
2024-02-15T15:34:31.470Z,76.35
2024-02-15T15:36:58.886Z,76.61
2024-02-15T15:39:26.261Z,77.23
2024-02-15T15:41:55.246Z,77.96
2024-02-15T15:44:24.075Z,78.45
2024-02-15T15:46:55.395Z,79.21
2024-02-15T15:49:25.659Z,79.74
2024-02-15T15:51:54.536Z,80.08
2024-02-15T15:54:21.876Z,80.50
2024-02-15T15:56:52.119Z,80.75
2024-02-15T15:59:19.741Z,81.07
2024-02-15T16:01:50.740Z,81.46
2024-02-15T16:04:18.353Z,81.85
2024-02-15T16:06:45.823Z,82.11
2024-02-15T16:09:14.249Z,83.06
2024-02-15T16:11:41.642Z,83.35
2024-02-15T16:14:14.918Z,83.78
2024-02-15T16:16:42.656Z,83.95
2024-02-15T16:19:09.991Z,83.80
2024-02-15T16:21:37.469Z,84.27
2024-02-15T16:24:05.756Z,84.18
2024-02-15T16:26:33.000Z,83.70
2024-02-15T16:29:01.778Z,83.61
2024-02-15T16:31:29.414Z,83.42
2024-02-15T16:33:58.048Z,83.26
2024-02-15T16:36:26.061Z,83.16
2024-02-15T16:38:53.387Z,83.56
2024-02-15T16:41:21.081Z,83.83
2024-02-15T16:43:50.274Z,84.29
2024-02-15T16:46:18.442Z,84.45
2024-02-15T16:48:46.050Z,84.24
2024-02-15T16:51:13.488Z,84.19
2024-02-15T16:53:41.379Z,84.38
2024-02-15T16:56:08.772Z,84.72
2024-02-15T16:58:35.939Z,84.56
2024-02-15T17:01:04.531Z,84.71
2024-02-15T17:03:31.846Z,84.38
2024-02-15T17:06:02.160Z,84.48
2024-02-15T17:08:29.556Z,84.21
2024-02-15T17:10:57.258Z,84.56
2024-02-15T17:13:24.782Z,84.70
2024-02-15T17:15:52.432Z,84.63
2024-02-15T17:18:24.670Z,85.03
2024-02-15T17:20:54.960Z,85.05
2024-02-15T17:23:26.515Z,85.17
2024-02-15T17:25:56.013Z,84.38
2024-02-15T17:28:23.359Z,84.27
2024-02-15T17:30:50.780Z,84.42
2024-02-15T17:33:19.773Z,84.71
2024-02-15T17:35:50.662Z,85.14
2024-02-15T17:38:18.544Z,85.32
2024-02-15T17:40:45.926Z,85.52
2024-02-15T17:43:13.223Z,85.59
2024-02-15T17:45:40.575Z,85.89
2024-02-15T17:48:08.609Z,85.72
2024-02-15T17:50:35.952Z,85.62
2024-02-15T17:53:03.190Z,85.64
2024-02-15T17:55:30.539Z,85.68
2024-02-15T17:57:58.525Z,85.66
2024-02-15T18:00:33.919Z,85.73
2024-02-15T18:03:03.014Z,85.67
2024-02-15T18:05:32.533Z,85.85
2024-02-15T18:07:59.951Z,85.89
2024-02-15T18:10:27.182Z,86.07
2024-02-15T18:12:55.390Z,86.18
2024-02-15T18:15:30.088Z,86.36
2024-02-15T18:17:58.511Z,86.35
2024-02-15T18:20:27.542Z,86.38
2024-02-15T18:22:55.286Z,86.37
2024-02-15T18:25:22.618Z,86.45
2024-02-15T18:27:49.924Z,86.20
2024-02-15T18:30:20.184Z,86.15
2024-02-15T18:32:49.317Z,86.07
2024-02-15T18:35:18.461Z,85.88
2024-02-15T18:37:48.042Z,85.77
2024-02-15T18:40:22.965Z,85.84
2024-02-15T18:42:53.990Z,85.69
2024-02-15T18:45:22.290Z,85.91
2024-02-15T18:47:50.049Z,86.05
2024-02-15T18:50:21.076Z,86.03
2024-02-15T18:52:49.002Z,86.22
2024-02-15T18:55:16.469Z,86.44
2024-02-15T18:57:43.882Z,86.74
2024-02-15T19:00:25.269Z,86.73
2024-02-15T19:03:01.350Z,87.07
2024-02-15T19:05:30.147Z,86.96
2024-02-15T19:07:59.157Z,87.08
2024-02-15T19:10:26.515Z,87.34
2024-02-15T19:12:54.907Z,87.34
2024-02-15T19:15:24.960Z,87.64
2024-02-15T19:17:52.967Z,87.64
2024-02-15T19:20:20.805Z,87.73
2024-02-15T19:22:48.194Z,87.70
2024-02-15T19:25:22.534Z,87.84
2024-02-15T19:27:50.553Z,87.85
2024-02-15T19:30:21.525Z,87.97
2024-02-15T19:32:51.508Z,88.13
2024-02-15T19:35:20.949Z,88.12
2024-02-15T19:37:48.568Z,88.26
2024-02-15T19:40:19.606Z,88.07
2024-02-15T19:42:49.879Z,88.04
2024-02-15T19:45:22.903Z,87.99
2024-02-15T19:47:53.082Z,88.23
2024-02-15T19:50:27.882Z,88.07
2024-02-15T19:52:55.896Z,88.05
2024-02-15T19:55:24.751Z,87.95
2024-02-15T19:57:53.209Z,88.09
2024-02-15T20:00:21.007Z,87.99
2024-02-15T20:02:50.042Z,88.21
2024-02-15T20:05:17.949Z,87.92
2024-02-15T20:07:46.145Z,87.66
2024-02-15T20:10:13.507Z,87.77
2024-02-15T20:12:40.866Z,87.49
2024-02-15T20:15:09.928Z,87.72
2024-02-15T20:17:38.221Z,87.58
2024-02-15T20:20:06.061Z,88.33
2024-02-15T20:22:33.381Z,88.29
2024-02-15T20:25:05.940Z,88.32
2024-02-15T20:27:34.678Z,88.31
2024-02-15T20:30:02.476Z,88.36
2024-02-15T20:32:30.816Z,88.17
2024-02-15T20:35:00.089Z,88.27
2024-02-15T20:37:27.597Z,88.45
2024-02-15T20:39:57.789Z,88.21
2024-02-15T20:42:26.398Z,88.46
2024-02-15T20:44:53.881Z,88.46
2024-02-15T20:47:23.812Z,88.66
2024-02-15T20:49:51.238Z,88.60
2024-02-15T20:52:19.366Z,88.45
2024-02-15T20:54:46.684Z,88.49
2024-02-15T20:57:17.753Z,88.64
2024-02-15T20:59:45.271Z,88.75
2024-02-15T21:02:14.101Z,88.77
2024-02-15T21:04:41.578Z,88.73
2024-02-15T21:07:09.645Z,88.55
2024-02-15T21:09:38.907Z,88.79
2024-02-15T21:12:08.355Z,88.47
2024-02-15T21:14:36.507Z,88.49
2024-02-15T21:17:04.253Z,88.55
2024-02-15T21:19:31.624Z,88.46
2024-02-15T21:21:59.273Z,88.28
2024-02-15T21:24:27.736Z,88.06
2024-02-15T21:26:55.316Z,88.17
2024-02-15T21:29:23.685Z,88.17
2024-02-15T21:31:52.508Z,88.20
2024-02-15T21:34:20.107Z,87.83
2024-02-15T21:36:47.563Z,87.03
2024-02-15T21:39:14.938Z,86.34
2024-02-15T21:41:42.343Z,86.18
2024-02-15T21:44:13.139Z,86.34
2024-02-15T21:46:43.033Z,85.57
2024-02-15T21:49:11.417Z,85.13
2024-02-15T21:51:38.930Z,84.51
2024-02-15T21:54:06.428Z,83.93
2024-02-15T21:56:33.791Z,83.54
2024-02-15T21:59:01.211Z,83.09
2024-02-15T22:01:28.756Z,83.17
2024-02-15T22:03:56.120Z,82.98
2024-02-15T22:06:23.644Z,82.51
2024-02-15T22:08:51.008Z,82.65
2024-02-15T22:11:19.968Z,82.55
2024-02-15T22:13:47.321Z,82.30
2024-02-15T22:16:17.269Z,82.60
2024-02-15T22:18:46.483Z,82.53
2024-02-15T22:21:14.004Z,82.26
2024-02-15T22:23:41.546Z,82.14
2024-02-15T22:26:20.514Z,81.59
2024-02-15T22:28:47.930Z,81.34
2024-02-15T22:31:23.236Z,80.90
2024-02-15T22:33:50.917Z,80.09
2024-02-15T22:36:26.213Z,79.14
2024-02-15T22:38:54.200Z,77.92
2024-02-15T22:41:22.568Z,76.37
2024-02-15T22:43:49.922Z,76.11
2024-02-15T22:46:17.478Z,75.38
2024-02-15T22:48:44.955Z,75.28
2024-02-15T22:51:13.183Z,75.04
2024-02-15T22:53:42.586Z,75.28
2024-02-15T22:56:14.628Z,75.34
2024-02-15T22:58:45.738Z,75.71
2024-02-15T23:01:14.489Z,75.66
2024-02-15T23:03:42.592Z,75.37
2024-02-15T23:06:12.291Z,75.44
2024-02-15T23:08:40.275Z,75.57
2024-02-15T23:11:08.219Z,75.30
2024-02-15T23:13:39.626Z,75.71
2024-02-15T23:16:08.693Z,75.86
2024-02-15T23:18:39.148Z,76.10
2024-02-15T23:21:06.764Z,76.32
2024-02-15T23:23:35.515Z,76.46
2024-02-15T23:26:03.196Z,76.44
2024-02-15T23:28:30.454Z,76.52
2024-02-15T23:30:57.842Z,77.14
2024-02-15T23:33:25.222Z,77.88
2024-02-15T23:36:13.733Z,77.81
2024-02-15T23:38:59.612Z,78.05
2024-02-15T23:41:27.418Z,78.29
2024-02-15T23:43:54.728Z,78.99
2024-02-15T23:46:22.061Z,79.92
2024-02-15T23:48:49.588Z,80.41
2024-02-15T23:51:17.069Z,80.69
2024-02-15T23:53:44.548Z,81.16
2024-02-15T23:56:11.886Z,81.60
2024-02-15T23:58:39.196Z,82.18
